Flight Track Log - Related Links

Times and Time Zones

All times are in EST time to prevent confusion due to time zone crossing. See the SLQ750 flight status page for this flight to view local times or setup timezone preferences in your user account.


Time Position Orientation Groundspeed Altitude Reporting Facility
EST Latitude Longitude Course Direction KTS MPH feet Rate Location/Type
Thu 10:32:45 AM 49.1500 -123.1167 33° Northeast 140 161 3,000  Level Vancouver Center
Thu 10:33:45 AM 49.1500 -123.0333 90° East 170 196 4,700 1,650 Climbing Vancouver Center
Thu 10:34:45 AM 49.1500 -122.9833 90° East 170 196 6,300 1,600 Climbing Vancouver Center
Thu 10:35:45 AM 49.1833 -122.9333 44° Northeast 170 196 7,900 1,650 Climbing Vancouver Center
Thu 10:36:45 AM 49.2333 -122.8833 33° Northeast 180 207 9,600 1,750 Climbing Vancouver Center
Thu 10:37:00 AM 49.3267 -122.8683 44° Northeast  Level FlightAware Approximate
Thu 10:37:45 AM 49.2667 -122.8333 44° Northeast 180 207 11,400  Level Vancouver Center
Thu 10:38:00 AM 49.3753 -122.8081 33° Northeast  Level FlightAware Approximate
Thu 10:38:45 AM 49.3000 -122.7833 44° Northeast 180 207 12,900  Level Vancouver Center
Thu 10:39:45 AM 49.3500 -122.7167 41° Northeast 190 219 14,100 1,200 Climbing Vancouver Center
Thu 10:40:45 AM 49.3833 -122.6667 44° Northeast 190 219 15,300 1,050 Climbing Vancouver Center
Thu 10:41:45 AM 49.4333 -122.6167 33° Northeast 190 219 16,200 900 Climbing Vancouver Center
Thu 10:42:45 AM 49.4667 -122.5667 44° Northeast 200 230 17,100 450 Climbing Vancouver Center
Thu 10:43:45 AM 49.5167 -122.4833 47° Northeast 220 253 17,100 -50 Level Vancouver Center
Thu 10:44:45 AM 49.5667 -122.4333 33° Northeast 230 265 17,000 -50 Descending Vancouver Center
Thu 10:45:45 AM 49.6167 -122.3500 47° Northeast 230 265 17,000  Level Vancouver Center
Thu 10:46:45 AM 49.6667 -122.3000 33° Northeast 230 265 17,000 -50 Level Vancouver Center
Thu 10:47:45 AM 49.7167 -122.2167 47° Northeast 240 276 16,900 -50 Descending Vancouver Center
Thu 10:48:45 AM 49.7500 -122.1667 44° Northeast 230 265 16,900  Level Vancouver Center
Thu 10:49:45 AM 49.8000 -122.1000 41° Northeast 230 265 16,900  Level Vancouver Center
Thu 10:50:45 AM 49.8500 -122.0167 47° Northeast 240 276 16,900  Level Vancouver Center
Thu 10:51:45 AM 49.9000 -121.9333 47° Northeast 240 276 16,900  Level Vancouver Center
Thu 10:52:45 AM 49.9500 -121.8833 33° Northeast 250 288 16,900 50 Level Vancouver Center
Thu 10:53:45 AM 49.9833 -121.8000 58° Northeast 250 288 17,000  Climbing Vancouver Center
Thu 10:54:45 AM 50.0500 -121.7167 39° Northeast 250 288 16,900 50 Descending Vancouver Center
Thu 10:55:45 AM 50.1000 -121.6667 33° Northeast 250 288 17,100 100 Climbing Vancouver Center
Thu 10:56:45 AM 50.1167 -121.5333 79° East 260 299 17,100  Level Vancouver Center
Thu 10:57:45 AM 50.1333 -121.4333 75° East 270 311 17,100  Level Vancouver Center
Thu 10:58:45 AM 50.1333 -121.3167 90° East 270 311 17,100  Level Vancouver Center
Thu 10:59:45 AM 50.1500 -121.2000 77° East 270 311 17,100  Level Vancouver Center
Thu 11:00:45 AM 50.1333 -121.0833 103° East 270 311 17,100  Level Vancouver Center
Thu 11:01:45 AM 50.1500 -120.9500 79° East 270 311 17,100  Level Vancouver Center
Thu 11:02:45 AM 50.1667 -120.8500 75° East 270 311 17,100  Level Vancouver Center
Thu 11:03:45 AM 50.1667 -120.7167 90° East 270 311 17,100  Level Vancouver Center
Thu 11:04:45 AM 50.1833 -120.6167 75° East 270 311 17,100  Level Vancouver Center
Thu 11:05:45 AM 50.1833 -120.4833 90° East 280 322 17,100 -150 Level Vancouver Center
Thu 11:06:45 AM 50.1833 -120.3833 90° East 280 322 16,800 -750 Descending Vancouver Center
Thu 11:07:45 AM 50.2000 -120.2167 81° East 290 334 15,600 -1,200 Descending Vancouver Center
Thu 11:08:45 AM 50.2000 -120.1167 90° East 300 345 14,400 -1,200 Descending Vancouver Center
Thu 11:09:45 AM 50.2167 -119.9833 79° East 300 345 13,200 -1,300 Descending Vancouver Center
Thu 11:10:45 AM 50.2167 -119.8500 90° East 300 345 11,800 -1,500 Descending Vancouver Center
Thu 11:11:45 AM 50.2333 -119.7333 77° East 280 322 10,200 -1,550 Descending Vancouver Center
Thu 11:12:45 AM 50.2333 -119.6167 90° East 270 311 8,700 -1,150 Descending Vancouver Center
Thu 11:13:45 AM 50.2500 -119.5167 75° East 250 288 7,900 -450 Descending Vancouver Center
Thu 11:14:45 AM 50.2333 -119.4167 105° East 230 265 7,800 -700 Descending Vancouver Center
Thu 11:15:45 AM 50.1667 -119.4000 171° South 230 265 6,500 -1,500 Descending Vancouver Center
Thu 11:16:45 AM 50.1000 -119.3667 162° South 250 288 4,800 -1,500 Descending Vancouver Center
Thu 11:17:45 AM 50.0500 -119.3833 192° South 210 242 3,500 -1,150 Descending Vancouver Center
Thu 11:18:45 AM 50.0000 -119.3833 180° South 170 196 2,500 -900 Descending Vancouver Center
Thu 11:19:45 AM 49.9500 -119.3667 168° South 150 173 1,700 -600 Descending Vancouver Center
Thu 11:20:45 AM 49.9333 -119.3667 180° South 90 104 1,300 -400 Descending Vancouver Center

Login

Don't have an account? Register now (free) for customized features, flight alerts, and more!